Date,TemperatureHighF,TemperatureAvgF,TemperatureLowF,DewpointHighF,DewpointAvgF,DewpointLowF,HumidityHigh,HumidityAvg,HumidityLow,PressureMaxIn,PressureMinIn,WindSpeedMaxMPH,WindSpeedAvgMPH,GustSpeedMaxMPH,PrecipitationSumIn
2013-2-1,51,36,26,31,26,22,86,69,38,30.45,30.29,8,2,8,0.00
2013-2-2,50,35,24,31,26,19,86,71,45,30.51,30.28,7,2,7,0.00
2013-2-3,55,41,24,29,23,19,85,54,26,30.35,30.10,16,3,16,0.01
2013-2-4,52,42,32,27,24,19,72,50,27,30.17,29.92,12,2,12,0.00
2013-2-5,46,41,33,29,21,13,73,47,30,30.06,29.87,36,6,36,0.00
2013-2-6,48,39,33,25,22,18,70,51,32,30.14,29.88,13,0,13,0.00
2013-2-7,40,34,27,27,22,17,78,61,41,30.11,29.86,0,0,0,0.00
2013-2-8,38,30,23,22,19,14,85,64,37,30.23,30.10,16,2,16,0.00
2013-2-9,42,30,20,26,20,13,82,67,51,30.27,30.17,7,0,2,0.00
2013-2-10,44,33,24,26,20,16,86,62,34,30.36,30.22,10,0,10,0.00
2013-2-11,48,35,23,29,22,15,78,60,28,30.34,30.21,13,1,13,0.00
2013-2-12,48,37,28,29,25,22,83,64,38,30.47,30.33,13,1,13,0.00
2013-2-13,47,37,29,31,27,24,83,68,50,30.47,30.36,2,0,2,0.00
2013-2-14,52,39,26,33,29,22,86,69,45,30.57,30.44,0,0,0,0.00
2013-2-15,59,40,26,33,29,22,88,68,34,30.53,30.23,0,0,0,0.01
2013-2-16,54,41,28,31,24,18,78,52,28,30.23,30.08,16,2,16,0.00
2013-2-17,44,32,20,21,17,11,80,58,26,30.29,30.08,2,0,0,0.00
2013-2-18,42,31,22,22,18,12,77,60,30,30.09,29.75,1,0,1,0.00
2013-2-19,40,30,20,28,19,14,83,65,40,29.98,29.73,13,1,13,0.00
2013-2-20,41,31,23,23,19,15,81,62,35,30.11,29.97,12,0,12,0.01
2013-2-21,39,33,25,23,21,17,80,62,40,30.19,30.06,12,1,12,0.00
2013-2-22,45,36,28,32,26,21,86,65,47,30.16,29.86,26,5,26,0.01
2013-2-23,37,29,22,22,18,15,80,64,42,30.43,30.01,28,2,28,0.02
2013-2-24,46,33,18,28,20,12,78,58,35,30.49,30.08,2,0,2,0.00
2013-2-25,41,35,25,30,20,8,79,54,27,30.36,29.99,21,4,21,0.00
2013-2-26,49,35,21,19,14,1,74,45,16,30.45,30.22,1,0,1,0.00
2013-2-27,48,40,29,29,21,13,56,46,36,30.34,30.23,12,0,12,0.00
2013-2-28,55,46,39,37,34,26,73,63,51,30.43,30.22,12,2,12,0.00